sensor_id;sensor_type;location;lat;lon;timestamp;P1;durP1;ratioP1;P2;durP2;ratioP2
12756;SDS011;31601;48.042;12.240;2023-04-06T00:02:20;7.37;;;5.10;;
12756;SDS011;31601;48.042;12.240;2023-04-06T00:04:48;6.47;;;5.00;;
12756;SDS011;31601;48.042;12.240;2023-04-06T00:07:14;7.10;;;5.30;;
12756;SDS011;31601;48.042;12.240;2023-04-06T00:09:41;9.97;;;4.90;;
12756;SDS011;31601;48.042;12.240;2023-04-06T00:12:07;9.10;;;5.50;;
12756;SDS011;31601;48.042;12.240;2023-04-06T00:14:33;6.50;;;5.17;;
12756;SDS011;31601;48.042;12.240;2023-04-06T00:17:00;6.80;;;4.83;;
12756;SDS011;31601;48.042;12.240;2023-04-06T00:19:26;7.20;;;5.13;;
12756;SDS011;31601;48.042;12.240;2023-04-06T00:21:54;10.43;;;5.23;;
12756;SDS011;31601;48.042;12.240;2023-04-06T00:24:21;9.70;;;5.60;;
12756;SDS011;31601;48.042;12.240;2023-04-06T00:26:47;7.67;;;5.17;;
12756;SDS011;31601;48.042;12.240;2023-04-06T00:29:13;6.83;;;4.80;;
12756;SDS011;31601;48.042;12.240;2023-04-06T00:31:40;9.57;;;5.53;;
12756;SDS011;31601;48.042;12.240;2023-04-06T00:34:06;9.63;;;5.87;;
12756;SDS011;31601;48.042;12.240;2023-04-06T00:36:32;9.53;;;6.20;;
12756;SDS011;31601;48.042;12.240;2023-04-06T00:39:00;9.90;;;5.83;;
12756;SDS011;31601;48.042;12.240;2023-04-06T00:41:27;6.87;;;5.37;;
12756;SDS011;31601;48.042;12.240;2023-04-06T00:43:53;10.07;;;6.30;;
12756;SDS011;31601;48.042;12.240;2023-04-06T00:46:20;10.80;;;6.47;;
12756;SDS011;31601;48.042;12.240;2023-04-06T00:48:46;9.97;;;5.53;;
12756;SDS011;31601;48.042;12.240;2023-04-06T00:51:12;7.00;;;5.47;;
12756;SDS011;31601;48.042;12.240;2023-04-06T00:53:39;7.53;;;5.47;;
12756;SDS011;31601;48.042;12.240;2023-04-06T00:56:07;6.93;;;5.00;;
12756;SDS011;31601;48.042;12.240;2023-04-06T00:58:34;9.43;;;5.67;;
12756;SDS011;31601;48.042;12.240;2023-04-06T01:01:03;9.67;;;6.37;;
12756;SDS011;31601;48.042;12.240;2023-04-06T01:03:29;8.87;;;5.53;;
12756;SDS011;31601;48.042;12.240;2023-04-06T01:05:55;8.67;;;5.87;;
12756;SDS011;31601;48.042;12.240;2023-04-06T01:08:23;9.33;;;5.90;;
12756;SDS011;31601;48.042;12.240;2023-04-06T01:10:49;8.30;;;5.90;;
12756;SDS011;31601;48.042;12.240;2023-04-06T01:13:17;8.40;;;5.90;;
12756;SDS011;31601;48.042;12.240;2023-04-06T01:15:44;7.60;;;5.63;;
12756;SDS011;31601;48.042;12.240;2023-04-06T01:18:12;7.57;;;6.13;;
12756;SDS011;31601;48.042;12.240;2023-04-06T01:20:38;7.67;;;5.60;;
12756;SDS011;31601;48.042;12.240;2023-04-06T01:23:06;10.57;;;5.37;;
12756;SDS011;31601;48.042;12.240;2023-04-06T01:25:33;9.13;;;5.40;;
12756;SDS011;31601;48.042;12.240;2023-04-06T01:27:59;6.03;;;4.93;;
12756;SDS011;31601;48.042;12.240;2023-04-06T01:30:25;8.37;;;5.70;;
12756;SDS011;31601;48.042;12.240;2023-04-06T01:32:52;6.87;;;5.13;;
12756;SDS011;31601;48.042;12.240;2023-04-06T01:35:19;9.73;;;5.50;;
12756;SDS011;31601;48.042;12.240;2023-04-06T01:37:45;6.90;;;5.47;;
12756;SDS011;31601;48.042;12.240;2023-04-06T01:40:13;8.03;;;5.50;;
12756;SDS011;31601;48.042;12.240;2023-04-06T01:42:40;14.73;;;6.87;;
12756;SDS011;31601;48.042;12.240;2023-04-06T01:45:07;7.27;;;5.60;;
12756;SDS011;31601;48.042;12.240;2023-04-06T01:47:34;7.73;;;5.50;;
12756;SDS011;31601;48.042;12.240;2023-04-06T01:50:00;6.93;;;5.07;;
12756;SDS011;31601;48.042;12.240;2023-04-06T01:52:27;9.13;;;5.47;;
12756;SDS011;31601;48.042;12.240;2023-04-06T01:54:54;7.70;;;5.60;;
12756;SDS011;31601;48.042;12.240;2023-04-06T01:57:21;8.77;;;5.73;;
12756;SDS011;31601;48.042;12.240;2023-04-06T01:59:48;8.70;;;5.87;;
12756;SDS011;31601;48.042;12.240;2023-04-06T02:02:14;7.43;;;5.50;;
12756;SDS011;31601;48.042;12.240;2023-04-06T02:04:41;7.80;;;5.67;;
12756;SDS011;31601;48.042;12.240;2023-04-06T02:07:07;8.67;;;5.80;;
12756;SDS011;31601;48.042;12.240;2023-04-06T02:09:34;8.53;;;5.77;;
12756;SDS011;31601;48.042;12.240;2023-04-06T02:12:00;10.10;;;5.90;;
12756;SDS011;31601;48.042;12.240;2023-04-06T02:14:28;6.60;;;5.27;;
12756;SDS011;31601;48.042;12.240;2023-04-06T02:16:55;8.57;;;6.30;;
12756;SDS011;31601;48.042;12.240;2023-04-06T02:19:21;7.33;;;5.70;;
12756;SDS011;31601;48.042;12.240;2023-04-06T02:21:48;8.80;;;6.10;;
12756;SDS011;31601;48.042;12.240;2023-04-06T02:24:14;9.60;;;6.10;;
12756;SDS011;31601;48.042;12.240;2023-04-06T02:26:41;8.87;;;5.77;;
12756;SDS011;31601;48.042;12.240;2023-04-06T02:29:07;11.07;;;5.70;;
12756;SDS011;31601;48.042;12.240;2023-04-06T02:31:35;10.07;;;6.10;;
12756;SDS011;31601;48.042;12.240;2023-04-06T02:34:02;8.83;;;5.87;;
12756;SDS011;31601;48.042;12.240;2023-04-06T02:36:28;8.20;;;5.40;;
12756;SDS011;31601;48.042;12.240;2023-04-06T02:38:55;8.83;;;6.10;;
12756;SDS011;31601;48.042;12.240;2023-04-06T02:41:22;7.77;;;5.60;;
12756;SDS011;31601;48.042;12.240;2023-04-06T02:43:48;7.13;;;5.40;;
12756;SDS011;31601;48.042;12.240;2023-04-06T02:46:14;10.23;;;5.77;;
12756;SDS011;31601;48.042;12.240;2023-04-06T02:48:42;9.50;;;5.43;;
12756;SDS011;31601;48.042;12.240;2023-04-06T02:51:08;11.83;;;6.47;;
12756;SDS011;31601;48.042;12.240;2023-04-06T02:53:35;8.33;;;5.63;;
12756;SDS011;31601;48.042;12.240;2023-04-06T02:56:01;7.03;;;5.47;;
12756;SDS011;31601;48.042;12.240;2023-04-06T02:58:28;9.17;;;6.17;;
12756;SDS011;31601;48.042;12.240;2023-04-06T03:00:54;11.07;;;6.70;;
12756;SDS011;31601;48.042;12.240;2023-04-06T03:03:20;8.60;;;6.10;;
12756;SDS011;31601;48.042;12.240;2023-04-06T03:05:48;16.53;;;5.90;;
12756;SDS011;31601;48.042;12.240;2023-04-06T03:08:15;10.10;;;5.90;;
12756;SDS011;31601;48.042;12.240;2023-04-06T03:10:41;9.90;;;6.50;;
12756;SDS011;31601;48.042;12.240;2023-04-06T03:13:07;10.63;;;6.47;;
12756;SDS011;31601;48.042;12.240;2023-04-06T03:15:34;10.30;;;5.60;;
12756;SDS011;31601;48.042;12.240;2023-04-06T03:18:00;8.30;;;6.13;;
12756;SDS011;31601;48.042;12.240;2023-04-06T03:20:27;12.37;;;5.93;;
12756;SDS011;31601;48.042;12.240;2023-04-06T03:22:54;10.10;;;6.13;;
12756;SDS011;31601;48.042;12.240;2023-04-06T03:25:21;9.23;;;6.03;;
12756;SDS011;31601;48.042;12.240;2023-04-06T03:27:47;7.67;;;5.30;;
12756;SDS011;31601;48.042;12.240;2023-04-06T03:30:14;8.33;;;6.20;;
12756;SDS011;31601;48.042;12.240;2023-04-06T03:32:42;11.40;;;6.93;;
12756;SDS011;31601;48.042;12.240;2023-04-06T03:35:08;9.80;;;6.63;;
12756;SDS011;31601;48.042;12.240;2023-04-06T03:37:35;10.60;;;7.13;;
12756;SDS011;31601;48.042;12.240;2023-04-06T03:40:03;12.37;;;6.73;;
12756;SDS011;31601;48.042;12.240;2023-04-06T03:42:31;8.27;;;6.10;;
12756;SDS011;31601;48.042;12.240;2023-04-06T03:44:57;9.17;;;6.43;;
12756;SDS011;31601;48.042;12.240;2023-04-06T03:47:24;9.03;;;5.97;;
12756;SDS011;31601;48.042;12.240;2023-04-06T03:49:50;8.97;;;6.27;;
12756;SDS011;31601;48.042;12.240;2023-04-06T03:52:17;9.73;;;6.67;;
12756;SDS011;31601;48.042;12.240;2023-04-06T03:54:43;18.50;;;7.30;;
12756;SDS011;31601;48.042;12.240;2023-04-06T03:57:11;11.07;;;7.20;;
12756;SDS011;31601;48.042;12.240;2023-04-06T03:59:38;9.83;;;6.70;;
12756;SDS011;31601;48.042;12.240;2023-04-06T04:02:04;10.30;;;6.07;;
12756;SDS011;31601;48.042;12.240;2023-04-06T04:04:30;9.87;;;6.30;;
12756;SDS011;31601;48.042;12.240;2023-04-06T04:06:57;11.17;;;6.90;;
12756;SDS011;31601;48.042;12.240;2023-04-06T04:09:23;11.00;;;6.93;;
12756;SDS011;31601;48.042;12.240;2023-04-06T04:11:50;15.20;;;6.53;;
12756;SDS011;31601;48.042;12.240;2023-04-06T04:14:17;11.53;;;6.80;;
12756;SDS011;31601;48.042;12.240;2023-04-06T04:16:44;11.83;;;6.80;;
12756;SDS011;31601;48.042;12.240;2023-04-06T04:19:10;9.77;;;6.40;;
12756;SDS011;31601;48.042;12.240;2023-04-06T04:21:42;10.13;;;6.20;;
12756;SDS011;31601;48.042;12.240;2023-04-06T04:24:09;11.30;;;6.00;;
12756;SDS011;31601;48.042;12.240;2023-04-06T04:26:35;12.20;;;6.30;;
12756;SDS011;31601;48.042;12.240;2023-04-06T04:29:02;8.13;;;6.20;;
12756;SDS011;31601;48.042;12.240;2023-04-06T04:31:29;8.93;;;5.90;;
12756;SDS011;31601;48.042;12.240;2023-04-06T04:33:56;10.00;;;6.20;;
12756;SDS011;31601;48.042;12.240;2023-04-06T04:36:23;11.50;;;6.20;;
12756;SDS011;31601;48.042;12.240;2023-04-06T04:38:50;7.07;;;5.57;;
12756;SDS011;31601;48.042;12.240;2023-04-06T04:41:17;12.67;;;6.70;;
12756;SDS011;31601;48.042;12.240;2023-04-06T04:43:44;9.77;;;6.47;;
12756;SDS011;31601;48.042;12.240;2023-04-06T04:46:10;10.33;;;6.47;;
12756;SDS011;31601;48.042;12.240;2023-04-06T04:48:38;10.67;;;6.83;;
12756;SDS011;31601;48.042;12.240;2023-04-06T04:51:04;11.73;;;7.30;;
12756;SDS011;31601;48.042;12.240;2023-04-06T04:53:31;12.73;;;7.47;;
12756;SDS011;31601;48.042;12.240;2023-04-06T04:55:57;8.53;;;6.40;;
12756;SDS011;31601;48.042;12.240;2023-04-06T04:58:23;12.43;;;7.07;;
12756;SDS011;31601;48.042;12.240;2023-04-06T05:00:50;13.03;;;7.67;;
12756;SDS011;31601;48.042;12.240;2023-04-06T05:03:18;7.60;;;5.93;;
12756;SDS011;31601;48.042;12.240;2023-04-06T05:05:49;11.63;;;6.20;;
12756;SDS011;31601;48.042;12.240;2023-04-06T05:08:15;10.57;;;7.80;;
12756;SDS011;31601;48.042;12.240;2023-04-06T05:10:42;10.90;;;6.97;;
12756;SDS011;31601;48.042;12.240;2023-04-06T05:13:09;10.80;;;6.90;;
12756;SDS011;31601;48.042;12.240;2023-04-06T05:15:36;9.73;;;6.20;;
12756;SDS011;31601;48.042;12.240;2023-04-06T05:18:04;8.97;;;6.40;;
12756;SDS011;31601;48.042;12.240;2023-04-06T05:20:31;8.73;;;6.13;;
12756;SDS011;31601;48.042;12.240;2023-04-06T05:22:58;11.33;;;6.20;;
12756;SDS011;31601;48.042;12.240;2023-04-06T05:25:25;8.93;;;5.67;;
12756;SDS011;31601;48.042;12.240;2023-04-06T05:27:52;7.70;;;6.03;;
12756;SDS011;31601;48.042;12.240;2023-04-06T05:30:18;7.97;;;6.10;;
12756;SDS011;31601;48.042;12.240;2023-04-06T05:32:46;14.03;;;6.20;;
12756;SDS011;31601;48.042;12.240;2023-04-06T05:35:12;8.53;;;6.33;;
12756;SDS011;31601;48.042;12.240;2023-04-06T05:37:39;9.33;;;6.20;;
12756;SDS011;31601;48.042;12.240;2023-04-06T05:40:08;10.57;;;7.27;;
12756;SDS011;31601;48.042;12.240;2023-04-06T05:42:36;9.90;;;6.30;;
12756;SDS011;31601;48.042;12.240;2023-04-06T05:45:03;9.90;;;7.00;;
12756;SDS011;31601;48.042;12.240;2023-04-06T05:47:30;10.53;;;7.00;;
12756;SDS011;31601;48.042;12.240;2023-04-06T05:49:57;10.63;;;6.93;;
12756;SDS011;31601;48.042;12.240;2023-04-06T05:52:23;10.13;;;7.40;;
12756;SDS011;31601;48.042;12.240;2023-04-06T05:54:49;11.30;;;7.40;;
12756;SDS011;31601;48.042;12.240;2023-04-06T05:57:17;11.43;;;7.67;;
12756;SDS011;31601;48.042;12.240;2023-04-06T05:59:43;9.07;;;7.23;;
12756;SDS011;31601;48.042;12.240;2023-04-06T06:02:10;11.37;;;7.70;;
12756;SDS011;31601;48.042;12.240;2023-04-06T06:04:36;8.90;;;7.17;;
12756;SDS011;31601;48.042;12.240;2023-04-06T06:07:03;8.83;;;7.93;;
12756;SDS011;31601;48.042;12.240;2023-04-06T06:09:30;10.57;;;7.77;;
12756;SDS011;31601;48.042;12.240;2023-04-06T06:11:56;10.87;;;7.70;;
12756;SDS011;31601;48.042;12.240;2023-04-06T06:14:24;12.50;;;8.70;;
12756;SDS011;31601;48.042;12.240;2023-04-06T06:16:53;12.47;;;8.63;;
12756;SDS011;31601;48.042;12.240;2023-04-06T06:19:19;15.43;;;8.87;;
12756;SDS011;31601;48.042;12.240;2023-04-06T06:21:46;12.77;;;8.90;;
12756;SDS011;31601;48.042;12.240;2023-04-06T06:24:12;12.37;;;7.93;;
12756;SDS011;31601;48.042;12.240;2023-04-06T06:26:38;13.03;;;7.90;;
12756;SDS011;31601;48.042;12.240;2023-04-06T06:29:05;13.07;;;9.33;;
12756;SDS011;31601;48.042;12.240;2023-04-06T06:31:33;15.40;;;9.07;;
12756;SDS011;31601;48.042;12.240;2023-04-06T06:34:00;15.43;;;9.60;;
12756;SDS011;31601;48.042;12.240;2023-04-06T06:36:27;13.33;;;9.30;;
12756;SDS011;31601;48.042;12.240;2023-04-06T06:38:53;10.67;;;8.80;;
12756;SDS011;31601;48.042;12.240;2023-04-06T06:41:20;12.23;;;9.27;;
12756;SDS011;31601;48.042;12.240;2023-04-06T06:43:46;15.97;;;9.53;;
12756;SDS011;31601;48.042;12.240;2023-04-06T06:46:12;13.43;;;9.43;;
12756;SDS011;31601;48.042;12.240;2023-04-06T06:48:40;10.47;;;8.57;;
12756;SDS011;31601;48.042;12.240;2023-04-06T06:51:06;10.57;;;8.47;;
12756;SDS011;31601;48.042;12.240;2023-04-06T06:53:34;13.87;;;8.67;;
12756;SDS011;31601;48.042;12.240;2023-04-06T06:56:01;13.00;;;8.77;;
12756;SDS011;31601;48.042;12.240;2023-04-06T06:58:27;10.50;;;8.60;;
12756;SDS011;31601;48.042;12.240;2023-04-06T07:00:55;14.70;;;8.73;;
12756;SDS011;31601;48.042;12.240;2023-04-06T07:03:22;10.90;;;7.87;;
12756;SDS011;31601;48.042;12.240;2023-04-06T07:05:49;13.73;;;8.20;;
12756;SDS011;31601;48.042;12.240;2023-04-06T07:08:18;10.83;;;8.30;;
12756;SDS011;31601;48.042;12.240;2023-04-06T07:10:45;10.60;;;7.50;;
12756;SDS011;31601;48.042;12.240;2023-04-06T07:13:11;10.13;;;7.50;;
12756;SDS011;31601;48.042;12.240;2023-04-06T07:15:39;10.00;;;7.07;;
12756;SDS011;31601;48.042;12.240;2023-04-06T07:18:06;11.70;;;8.07;;
12756;SDS011;31601;48.042;12.240;2023-04-06T07:20:32;11.53;;;7.27;;
12756;SDS011;31601;48.042;12.240;2023-04-06T07:23:00;10.13;;;6.90;;
12756;SDS011;31601;48.042;12.240;2023-04-06T07:25:27;11.37;;;7.10;;
12756;SDS011;31601;48.042;12.240;2023-04-06T07:27:54;7.80;;;6.07;;
12756;SDS011;31601;48.042;12.240;2023-04-06T07:30:20;7.47;;;6.17;;
12756;SDS011;31601;48.042;12.240;2023-04-06T07:32:47;9.13;;;6.20;;
12756;SDS011;31601;48.042;12.240;2023-04-06T07:35:14;6.87;;;5.67;;
12756;SDS011;31601;48.042;12.240;2023-04-06T07:37:41;9.00;;;6.20;;
12756;SDS011;31601;48.042;12.240;2023-04-06T07:40:09;8.93;;;6.20;;
12756;SDS011;31601;48.042;12.240;2023-04-06T07:42:36;8.77;;;6.60;;
12756;SDS011;31601;48.042;12.240;2023-04-06T07:45:03;8.97;;;6.70;;
12756;SDS011;31601;48.042;12.240;2023-04-06T07:47:30;8.67;;;6.63;;
12756;SDS011;31601;48.042;12.240;2023-04-06T07:49:56;9.97;;;6.57;;
12756;SDS011;31601;48.042;12.240;2023-04-06T07:52:22;7.70;;;6.77;;
12756;SDS011;31601;48.042;12.240;2023-04-06T07:54:49;7.37;;;6.03;;
12756;SDS011;31601;48.042;12.240;2023-04-06T07:57:17;9.03;;;6.77;;
12756;SDS011;31601;48.042;12.240;2023-04-06T07:59:43;11.63;;;6.30;;
12756;SDS011;31601;48.042;12.240;2023-04-06T08:02:10;8.07;;;6.73;;
12756;SDS011;31601;48.042;12.240;2023-04-06T08:04:36;8.47;;;6.70;;
12756;SDS011;31601;48.042;12.240;2023-04-06T08:07:03;9.33;;;6.37;;
12756;SDS011;31601;48.042;12.240;2023-04-06T08:09:29;8.70;;;6.53;;
12756;SDS011;31601;48.042;12.240;2023-04-06T08:11:55;7.30;;;6.50;;
12756;SDS011;31601;48.042;12.240;2023-04-06T08:14:23;11.47;;;6.20;;
12756;SDS011;31601;48.042;12.240;2023-04-06T08:16:49;10.07;;;6.30;;
12756;SDS011;31601;48.042;12.240;2023-04-06T08:19:16;8.43;;;6.17;;
12756;SDS011;31601;48.042;12.240;2023-04-06T08:21:43;8.37;;;6.40;;
12756;SDS011;31601;48.042;12.240;2023-04-06T08:24:10;7.53;;;5.90;;
12756;SDS011;31601;48.042;12.240;2023-04-06T08:26:37;9.23;;;6.10;;
12756;SDS011;31601;48.042;12.240;2023-04-06T08:29:04;11.70;;;5.90;;
12756;SDS011;31601;48.042;12.240;2023-04-06T08:31:33;7.23;;;6.07;;
12756;SDS011;31601;48.042;12.240;2023-04-06T08:34:00;7.40;;;6.20;;
12756;SDS011;31601;48.042;12.240;2023-04-06T08:36:26;9.27;;;5.93;;
12756;SDS011;31601;48.042;12.240;2023-04-06T08:38:53;7.77;;;5.73;;
12756;SDS011;31601;48.042;12.240;2023-04-06T08:41:19;11.57;;;6.43;;
12756;SDS011;31601;48.042;12.240;2023-04-06T08:43:46;8.03;;;5.90;;
12756;SDS011;31601;48.042;12.240;2023-04-06T08:46:15;10.63;;;5.43;;
12756;SDS011;31601;48.042;12.240;2023-04-06T08:48:43;7.57;;;5.43;;
12756;SDS011;31601;48.042;12.240;2023-04-06T08:51:09;8.23;;;5.77;;
12756;SDS011;31601;48.042;12.240;2023-04-06T08:53:36;9.87;;;5.67;;
12756;SDS011;31601;48.042;12.240;2023-04-06T08:56:03;6.90;;;5.63;;
12756;SDS011;31601;48.042;12.240;2023-04-06T08:58:32;7.67;;;5.70;;
12756;SDS011;31601;48.042;12.240;2023-04-06T09:01:01;7.20;;;5.27;;
12756;SDS011;31601;48.042;12.240;2023-04-06T09:03:29;6.53;;;5.47;;
12756;SDS011;31601;48.042;12.240;2023-04-06T09:05:58;6.57;;;5.43;;
12756;SDS011;31601;48.042;12.240;2023-04-06T09:08:25;7.57;;;6.23;;
12756;SDS011;31601;48.042;12.240;2023-04-06T09:10:52;9.37;;;5.77;;
12756;SDS011;31601;48.042;12.240;2023-04-06T09:13:18;8.43;;;5.83;;
12756;SDS011;31601;48.042;12.240;2023-04-06T09:15:45;6.70;;;5.37;;
12756;SDS011;31601;48.042;12.240;2023-04-06T09:18:11;7.93;;;5.70;;
12756;SDS011;31601;48.042;12.240;2023-04-06T09:20:37;10.30;;;6.00;;
12756;SDS011;31601;48.042;12.240;2023-04-06T09:23:05;11.23;;;5.70;;
12756;SDS011;31601;48.042;12.240;2023-04-06T09:25:32;7.53;;;5.70;;
12756;SDS011;31601;48.042;12.240;2023-04-06T09:27:58;8.80;;;6.37;;
12756;SDS011;31601;48.042;12.240;2023-04-06T09:30:25;7.80;;;6.27;;
12756;SDS011;31601;48.042;12.240;2023-04-06T09:32:52;9.77;;;6.00;;
12756;SDS011;31601;48.042;12.240;2023-04-06T09:35:20;9.07;;;5.97;;
12756;SDS011;31601;48.042;12.240;2023-04-06T09:37:47;11.37;;;6.60;;
12756;SDS011;31601;48.042;12.240;2023-04-06T09:40:16;8.57;;;5.80;;
12756;SDS011;31601;48.042;12.240;2023-04-06T09:42:44;8.30;;;6.10;;
12756;SDS011;31601;48.042;12.240;2023-04-06T09:45:12;7.40;;;5.70;;
12756;SDS011;31601;48.042;12.240;2023-04-06T09:47:39;8.27;;;5.73;;
12756;SDS011;31601;48.042;12.240;2023-04-06T09:50:09;7.03;;;5.50;;
12756;SDS011;31601;48.042;12.240;2023-04-06T09:52:37;7.17;;;5.13;;
12756;SDS011;31601;48.042;12.240;2023-04-06T09:55:07;7.70;;;5.27;;
12756;SDS011;31601;48.042;12.240;2023-04-06T09:57:37;7.63;;;5.93;;
12756;SDS011;31601;48.042;12.240;2023-04-06T10:00:12;9.23;;;6.10;;
12756;SDS011;31601;48.042;12.240;2023-04-06T10:02:45;6.83;;;5.50;;
12756;SDS011;31601;48.042;12.240;2023-04-06T10:05:16;6.33;;;5.57;;
12756;SDS011;31601;48.042;12.240;2023-04-06T10:07:48;7.70;;;5.90;;
12756;SDS011;31601;48.042;12.240;2023-04-06T10:10:20;9.37;;;6.13;;
12756;SDS011;31601;48.042;12.240;2023-04-06T10:12:48;7.93;;;6.03;;
12756;SDS011;31601;48.042;12.240;2023-04-06T10:15:15;7.27;;;5.90;;
12756;SDS011;31601;48.042;12.240;2023-04-06T10:17:42;8.30;;;6.03;;
12756;SDS011;31601;48.042;12.240;2023-04-06T10:20:10;9.77;;;6.27;;
12756;SDS011;31601;48.042;12.240;2023-04-06T10:22:41;6.00;;;5.40;;
12756;SDS011;31601;48.042;12.240;2023-04-06T10:25:15;7.00;;;5.80;;
12756;SDS011;31601;48.042;12.240;2023-04-06T10:27:42;9.83;;;6.47;;
12756;SDS011;31601;48.042;12.240;2023-04-06T10:30:10;7.80;;;6.10;;
12756;SDS011;31601;48.042;12.240;2023-04-06T10:32:37;9.03;;;6.37;;
12756;SDS011;31601;48.042;12.240;2023-04-06T10:35:05;9.60;;;6.83;;
12756;SDS011;31601;48.042;12.240;2023-04-06T10:37:45;7.50;;;6.00;;
12756;SDS011;31601;48.042;12.240;2023-04-06T10:40:17;6.30;;;5.50;;
12756;SDS011;31601;48.042;12.240;2023-04-06T10:42:45;12.27;;;6.20;;
12756;SDS011;31601;48.042;12.240;2023-04-06T10:45:19;8.53;;;6.97;;
12756;SDS011;31601;48.042;12.240;2023-04-06T10:47:47;8.80;;;7.37;;
12756;SDS011;31601;48.042;12.240;2023-04-06T10:50:14;6.37;;;5.77;;
12756;SDS011;31601;48.042;12.240;2023-04-06T10:52:41;7.10;;;6.00;;
12756;SDS011;31601;48.042;12.240;2023-04-06T10:55:08;8.30;;;6.20;;
12756;SDS011;31601;48.042;12.240;2023-04-06T10:57:35;10.03;;;7.40;;
12756;SDS011;31601;48.042;12.240;2023-04-06T11:00:03;7.87;;;6.00;;
12756;SDS011;31601;48.042;12.240;2023-04-06T11:02:31;7.33;;;5.97;;
12756;SDS011;31601;48.042;12.240;2023-04-06T11:04:58;6.77;;;6.07;;
12756;SDS011;31601;48.042;12.240;2023-04-06T11:07:25;7.97;;;6.63;;
12756;SDS011;31601;48.042;12.240;2023-04-06T11:09:52;7.10;;;6.17;;
12756;SDS011;31601;48.042;12.240;2023-04-06T11:12:22;7.70;;;5.87;;
12756;SDS011;31601;48.042;12.240;2023-04-06T11:14:54;10.23;;;7.20;;
12756;SDS011;31601;48.042;12.240;2023-04-06T11:17:25;8.37;;;5.73;;
12756;SDS011;31601;48.042;12.240;2023-04-06T11:19:53;7.73;;;5.80;;
12756;SDS011;31601;48.042;12.240;2023-04-06T11:22:20;6.97;;;5.67;;
12756;SDS011;31601;48.042;12.240;2023-04-06T11:24:46;6.87;;;6.17;;
12756;SDS011;31601;48.042;12.240;2023-04-06T11:27:14;8.57;;;6.13;;
12756;SDS011;31601;48.042;12.240;2023-04-06T11:29:41;9.77;;;5.77;;
12756;SDS011;31601;48.042;12.240;2023-04-06T11:32:07;6.90;;;5.73;;
12756;SDS011;31601;48.042;12.240;2023-04-06T11:34:34;7.00;;;6.30;;
12756;SDS011;31601;48.042;12.240;2023-04-06T11:37:06;6.90;;;5.83;;
12756;SDS011;31601;48.042;12.240;2023-04-06T11:39:37;8.00;;;6.37;;
12756;SDS011;31601;48.042;12.240;2023-04-06T11:42:05;6.17;;;5.57;;
12756;SDS011;31601;48.042;12.240;2023-04-06T11:44:32;6.53;;;5.50;;
12756;SDS011;31601;48.042;12.240;2023-04-06T11:47:00;7.70;;;6.50;;
12756;SDS011;31601;48.042;12.240;2023-04-06T11:49:27;5.93;;;5.30;;
12756;SDS011;31601;48.042;12.240;2023-04-06T11:51:54;7.30;;;5.73;;
12756;SDS011;31601;48.042;12.240;2023-04-06T11:54:30;8.27;;;6.07;;
12756;SDS011;31601;48.042;12.240;2023-04-06T11:56:57;10.90;;;5.97;;
12756;SDS011;31601;48.042;12.240;2023-04-06T11:59:24;14.07;;;8.43;;
12756;SDS011;31601;48.042;12.240;2023-04-06T12:01:50;8.50;;;6.43;;
12756;SDS011;31601;48.042;12.240;2023-04-06T12:04:18;21.93;;;12.57;;
12756;SDS011;31601;48.042;12.240;2023-04-06T12:06:44;8.90;;;6.23;;
12756;SDS011;31601;48.042;12.240;2023-04-06T12:09:10;8.70;;;5.90;;
12756;SDS011;31601;48.042;12.240;2023-04-06T12:11:38;7.50;;;5.60;;
12756;SDS011;31601;48.042;12.240;2023-04-06T12:14:05;7.57;;;5.40;;
12756;SDS011;31601;48.042;12.240;2023-04-06T12:16:32;9.17;;;6.57;;
12756;SDS011;31601;48.042;12.240;2023-04-06T12:18:59;8.27;;;6.53;;
12756;SDS011;31601;48.042;12.240;2023-04-06T12:21:26;7.27;;;5.50;;
12756;SDS011;31601;48.042;12.240;2023-04-06T12:23:52;6.77;;;5.33;;
12756;SDS011;31601;48.042;12.240;2023-04-06T12:26:19;8.23;;;6.20;;
12756;SDS011;31601;48.042;12.240;2023-04-06T12:28:47;6.63;;;6.03;;
12756;SDS011;31601;48.042;12.240;2023-04-06T12:31:16;6.53;;;5.73;;
12756;SDS011;31601;48.042;12.240;2023-04-06T12:33:43;7.30;;;5.83;;
12756;SDS011;31601;48.042;12.240;2023-04-06T12:36:11;8.57;;;5.53;;
12756;SDS011;31601;48.042;12.240;2023-04-06T12:38:38;6.80;;;5.50;;
12756;SDS011;31601;48.042;12.240;2023-04-06T12:41:05;6.27;;;5.53;;
12756;SDS011;31601;48.042;12.240;2023-04-06T12:43:32;8.07;;;6.07;;
12756;SDS011;31601;48.042;12.240;2023-04-06T12:46:00;7.23;;;5.90;;
12756;SDS011;31601;48.042;12.240;2023-04-06T12:48:26;8.07;;;6.50;;
12756;SDS011;31601;48.042;12.240;2023-04-06T12:50:56;10.63;;;6.20;;
12756;SDS011;31601;48.042;12.240;2023-04-06T12:53:24;8.77;;;6.27;;
12756;SDS011;31601;48.042;12.240;2023-04-06T12:55:51;6.53;;;5.57;;
12756;SDS011;31601;48.042;12.240;2023-04-06T12:58:18;7.17;;;5.90;;
12756;SDS011;31601;48.042;12.240;2023-04-06T13:00:46;7.93;;;5.80;;
12756;SDS011;31601;48.042;12.240;2023-04-06T13:03:14;6.67;;;5.17;;
12756;SDS011;31601;48.042;12.240;2023-04-06T13:05:43;8.00;;;5.93;;
12756;SDS011;31601;48.042;12.240;2023-04-06T13:08:10;7.50;;;5.10;;
12756;SDS011;31601;48.042;12.240;2023-04-06T13:10:36;6.03;;;5.43;;
12756;SDS011;31601;48.042;12.240;2023-04-06T13:13:03;9.13;;;5.40;;
12756;SDS011;31601;48.042;12.240;2023-04-06T13:15:30;6.40;;;5.70;;
12756;SDS011;31601;48.042;12.240;2023-04-06T13:17:59;7.30;;;6.00;;
12756;SDS011;31601;48.042;12.240;2023-04-06T13:20:27;9.47;;;5.53;;
12756;SDS011;31601;48.042;12.240;2023-04-06T13:22:54;6.30;;;5.70;;
12756;SDS011;31601;48.042;12.240;2023-04-06T13:25:20;7.37;;;6.00;;
12756;SDS011;31601;48.042;12.240;2023-04-06T13:27:46;6.00;;;5.40;;
12756;SDS011;31601;48.042;12.240;2023-04-06T13:30:13;7.60;;;5.83;;
12756;SDS011;31601;48.042;12.240;2023-04-06T13:32:40;7.20;;;6.13;;
12756;SDS011;31601;48.042;12.240;2023-04-06T13:35:07;7.33;;;5.90;;
12756;SDS011;31601;48.042;12.240;2023-04-06T13:37:35;6.30;;;5.67;;
12756;SDS011;31601;48.042;12.240;2023-04-06T13:40:02;6.90;;;5.53;;
12756;SDS011;31601;48.042;12.240;2023-04-06T13:42:29;9.07;;;5.93;;
12756;SDS011;31601;48.042;12.240;2023-04-06T13:44:57;8.17;;;6.03;;
12756;SDS011;31601;48.042;12.240;2023-04-06T13:47:24;6.53;;;5.67;;
12756;SDS011;31601;48.042;12.240;2023-04-06T13:49:51;6.17;;;5.57;;
12756;SDS011;31601;48.042;12.240;2023-04-06T13:52:18;7.27;;;6.10;;
12756;SDS011;31601;48.042;12.240;2023-04-06T13:54:46;6.77;;;5.80;;
12756;SDS011;31601;48.042;12.240;2023-04-06T13:57:13;8.20;;;5.80;;
12756;SDS011;31601;48.042;12.240;2023-04-06T13:59:39;6.87;;;5.97;;
12756;SDS011;31601;48.042;12.240;2023-04-06T14:02:06;7.30;;;5.57;;
12756;SDS011;31601;48.042;12.240;2023-04-06T14:04:34;5.90;;;5.30;;
12756;SDS011;31601;48.042;12.240;2023-04-06T14:07:01;6.80;;;5.83;;
12756;SDS011;31601;48.042;12.240;2023-04-06T14:09:28;6.13;;;5.53;;
12756;SDS011;31601;48.042;12.240;2023-04-06T14:11:56;7.77;;;5.70;;
12756;SDS011;31601;48.042;12.240;2023-04-06T14:14:23;7.37;;;5.50;;
12756;SDS011;31601;48.042;12.240;2023-04-06T14:16:49;6.60;;;5.67;;
12756;SDS011;31601;48.042;12.240;2023-04-06T14:19:16;9.57;;;5.60;;
12756;SDS011;31601;48.042;12.240;2023-04-06T14:21:43;6.97;;;5.57;;
12756;SDS011;31601;48.042;12.240;2023-04-06T14:24:10;7.37;;;6.07;;
12756;SDS011;31601;48.042;12.240;2023-04-06T14:26:38;8.50;;;6.20;;
12756;SDS011;31601;48.042;12.240;2023-04-06T14:29:07;7.47;;;5.63;;
12756;SDS011;31601;48.042;12.240;2023-04-06T14:31:34;6.70;;;6.00;;